createdAt,value
2018-04-12T00:01:40.377Z,12.57
2018-04-12T00:04:07.890Z,12.98
2018-04-12T00:06:35.389Z,12.74
2018-04-12T00:09:02.877Z,12.95
2018-04-12T00:11:30.556Z,12.37
2018-04-12T00:13:58.046Z,12.51
2018-04-12T00:16:25.551Z,12.90
2018-04-12T00:18:53.073Z,12.47
2018-04-12T00:21:20.568Z,12.50
2018-04-12T00:23:48.317Z,12.25
2018-04-12T00:26:15.793Z,12.43
2018-04-12T00:28:43.269Z,12.57
2018-04-12T00:31:10.793Z,12.16
2018-04-12T00:33:38.277Z,12.10
2018-04-12T00:36:05.817Z,12.72
2018-04-12T00:38:33.309Z,12.52
2018-04-12T00:41:00.785Z,12.67
2018-04-12T00:43:28.303Z,12.71
2018-04-12T00:45:55.793Z,12.70
2018-04-12T00:48:23.336Z,12.79
2018-04-12T00:50:50.821Z,12.63
2018-04-12T00:53:30.163Z,12.79
2018-04-12T00:55:57.646Z,12.66
2018-04-12T00:58:25.141Z,12.83
2018-04-12T01:00:52.646Z,12.74
2018-04-12T01:03:20.141Z,12.54
2018-04-12T01:05:47.909Z,12.38
2018-04-12T01:08:15.390Z,12.64
2018-04-12T01:10:42.893Z,12.73
2018-04-12T01:13:10.397Z,12.67
2018-04-12T01:15:37.877Z,12.35
2018-04-12T01:18:05.569Z,12.22
2018-04-12T01:20:33.057Z,12.34
2018-04-12T01:23:00.544Z,12.49
2018-04-12T01:25:28.050Z,12.59
2018-04-12T01:27:55.537Z,12.39
2018-04-12T01:30:23.066Z,12.53
2018-04-12T01:33:02.458Z,12.34
2018-04-12T01:35:30.337Z,12.59
2018-04-12T01:37:57.860Z,12.42
2018-04-12T01:40:25.341Z,12.53
2018-04-12T01:42:52.851Z,12.66
2018-04-12T01:45:20.370Z,12.52
2018-04-12T01:47:47.905Z,12.50
2018-04-12T01:50:15.396Z,12.68
2018-04-12T01:52:42.873Z,12.63
2018-04-12T01:55:10.389Z,12.81
2018-04-12T01:57:37.891Z,12.86
2018-04-12T02:00:05.681Z,12.83
2018-04-12T02:02:33.232Z,12.81
2018-04-12T02:05:00.721Z,12.63
2018-04-12T02:07:28.248Z,12.84
2018-04-12T02:09:55.759Z,12.62
2018-04-12T02:12:23.409Z,12.70
2018-04-12T02:14:50.893Z,12.39
2018-04-12T02:17:18.396Z,12.74
2018-04-12T02:19:45.901Z,12.62
2018-04-12T02:22:13.381Z,12.58
2018-04-12T02:24:41.173Z,12.52
2018-04-12T02:27:08.657Z,12.46
2018-04-12T02:29:36.153Z,12.51
2018-04-12T02:32:03.656Z,12.56
2018-04-12T02:34:31.142Z,12.61
2018-04-12T02:36:58.849Z,12.55
2018-04-12T02:39:26.336Z,12.45
2018-04-12T02:41:53.829Z,12.45
2018-04-12T02:44:21.346Z,12.35
2018-04-12T02:46:48.857Z,12.42
2018-04-12T02:49:16.378Z,12.27
2018-04-12T02:51:43.868Z,12.36
2018-04-12T02:54:11.361Z,12.20
2018-04-12T02:56:38.868Z,12.29
2018-04-12T02:59:06.357Z,12.13
2018-04-12T03:01:33.885Z,12.33
2018-04-12T03:04:01.362Z,12.38
2018-04-12T03:06:28.863Z,12.14
2018-04-12T03:08:56.381Z,12.10
2018-04-12T03:11:23.871Z,11.91
2018-04-12T03:13:51.429Z,12.18
2018-04-12T03:16:18.908Z,12.31
2018-04-12T03:18:46.426Z,12.31
2018-04-12T03:21:13.942Z,12.22
2018-04-12T03:23:41.458Z,12.23
2018-04-12T03:26:09.349Z,12.31
2018-04-12T03:28:36.847Z,12.24
2018-04-12T03:31:04.345Z,12.06
2018-04-12T03:33:31.869Z,12.38
2018-04-12T03:35:59.362Z,12.54
2018-04-12T03:38:27.093Z,12.41
2018-04-12T03:40:54.588Z,12.43
2018-04-12T03:43:22.077Z,12.18
2018-04-12T03:45:49.597Z,11.92
2018-04-12T03:48:17.086Z,11.68
2018-04-12T03:50:44.621Z,11.90
2018-04-12T03:53:12.149Z,11.81
2018-04-12T03:55:39.730Z,12.09
2018-04-12T03:58:07.245Z,11.96
2018-04-12T04:00:34.744Z,11.76
2018-04-12T04:03:02.230Z,12.15
2018-04-12T04:05:29.764Z,12.01
2018-04-12T04:07:57.284Z,11.91
2018-04-12T04:10:24.773Z,12.06
2018-04-12T04:12:52.427Z,12.03
2018-04-12T04:15:31.883Z,12.12
2018-04-12T04:18:12.300Z,11.69
2018-04-12T04:20:51.752Z,11.72
2018-04-12T04:23:19.665Z,11.83
2018-04-12T04:25:47.155Z,11.53
2018-04-12T04:28:14.650Z,11.28
2018-04-12T04:30:42.160Z,11.18
2018-04-12T04:33:09.653Z,11.35
2018-04-12T04:35:37.646Z,11.20
2018-04-12T04:38:05.981Z,11.05
2018-04-12T04:40:33.475Z,11.07
2018-04-12T04:43:01.009Z,11.12
2018-04-12T04:45:28.506Z,11.07
2018-04-12T04:47:56.038Z,11.08
2018-04-12T04:50:23.533Z,11.09
2018-04-12T04:52:51.017Z,11.08
2018-04-12T04:55:18.531Z,11.04
2018-04-12T04:57:46.054Z,11.02
2018-04-12T05:00:13.703Z,10.93
2018-04-12T05:02:42.468Z,10.98
2018-04-12T05:05:10.063Z,10.93
2018-04-12T05:07:37.541Z,10.91
2018-04-12T05:10:05.036Z,11.01
2018-04-12T05:12:32.747Z,11.01
2018-04-12T05:15:00.261Z,11.00
2018-04-12T05:17:27.773Z,10.94
2018-04-12T05:19:55.290Z,10.96
2018-04-12T05:22:22.773Z,11.10
2018-04-12T05:24:50.507Z,11.15
2018-04-12T05:27:18.001Z,11.22
2018-04-12T05:29:45.492Z,11.24
2018-04-12T05:32:13.001Z,11.22
2018-04-12T05:34:40.489Z,11.20
2018-04-12T05:37:08.017Z,11.32
2018-04-12T05:39:35.500Z,11.36
2018-04-12T05:42:02.993Z,11.41
2018-04-12T05:44:30.504Z,11.42
2018-04-12T05:46:58.021Z,11.46
2018-04-12T05:49:25.546Z,11.56
2018-04-12T05:51:53.029Z,11.52
2018-04-12T05:54:20.683Z,11.52
2018-04-12T05:56:48.194Z,11.58
2018-04-12T05:59:15.686Z,11.71
2018-04-12T06:01:43.210Z,11.75
2018-04-12T06:04:10.760Z,11.69
2018-04-12T06:06:38.254Z,11.69
2018-04-12T06:09:05.773Z,11.54
2018-04-12T06:11:34.632Z,11.62
2018-04-12T06:14:02.301Z,11.77
2018-04-12T06:16:29.785Z,11.88
2018-04-12T06:18:57.269Z,11.96
2018-04-12T06:21:24.785Z,12.15
2018-04-12T06:23:52.285Z,12.17
2018-04-12T06:26:19.862Z,12.27
2018-04-12T06:28:47.385Z,12.52
2018-04-12T06:31:14.869Z,12.61
2018-04-12T06:33:42.418Z,12.71
2018-04-12T06:36:09.914Z,12.80
2018-04-12T06:38:37.569Z,13.00
2018-04-12T06:41:05.059Z,13.19
2018-04-12T06:43:32.545Z,13.63
2018-04-12T06:46:00.054Z,13.81
2018-04-12T06:48:27.566Z,14.40
2018-04-12T06:50:55.324Z,14.67
2018-04-12T06:53:22.849Z,14.92
2018-04-12T06:55:50.334Z,15.01
2018-04-12T06:58:17.845Z,15.24
2018-04-12T07:00:45.328Z,15.39
2018-04-12T07:03:12.866Z,15.44
2018-04-12T07:05:40.365Z,15.54
2018-04-12T07:08:07.861Z,15.73
2018-04-12T07:10:35.382Z,15.73
2018-04-12T07:13:02.872Z,15.90
2018-04-12T07:15:30.547Z,15.92
2018-04-12T07:17:58.033Z,15.71
2018-04-12T07:20:25.525Z,15.78
2018-04-12T07:22:53.041Z,15.93
2018-04-12T07:25:20.521Z,15.80
2018-04-12T07:27:48.497Z,15.78
2018-04-12T07:30:15.978Z,15.80
2018-04-12T07:35:10.271Z,15.89
2018-04-12T07:37:37.795Z,15.91
2018-04-12T07:40:05.445Z,16.19
2018-04-12T07:42:33.747Z,16.25
2018-04-12T07:45:01.321Z,16.31
2018-04-12T07:47:28.837Z,16.55
2018-04-12T07:49:56.329Z,16.47
2018-04-12T07:52:24.117Z,16.51
2018-04-12T07:54:51.608Z,16.60
2018-04-12T07:57:19.094Z,16.66
2018-04-12T07:59:46.639Z,16.70
2018-04-12T08:02:14.153Z,16.97
2018-04-12T08:04:41.700Z,16.82
2018-04-12T08:07:09.185Z,16.75
2018-04-12T08:09:36.673Z,17.01
2018-04-12T08:12:04.205Z,16.84
2018-04-12T08:14:31.693Z,16.92
2018-04-12T08:16:59.312Z,16.93
2018-04-12T08:19:26.797Z,16.95
2018-04-12T08:21:54.309Z,17.38
2018-04-12T08:24:21.828Z,17.27
2018-04-12T08:26:49.317Z,17.28
2018-04-12T08:29:16.849Z,17.41
2018-04-12T08:31:44.346Z,17.28
2018-04-12T08:34:11.837Z,17.40
2018-04-12T08:36:39.356Z,17.47
2018-04-12T08:39:06.853Z,17.63
2018-04-12T08:41:34.698Z,17.51
2018-04-12T08:44:02.201Z,17.70
2018-04-12T08:46:29.692Z,17.62
2018-04-12T08:48:57.213Z,17.82
2018-04-12T08:51:24.697Z,17.78
2018-04-12T08:53:52.501Z,18.07
2018-04-12T08:56:20.014Z,17.88
2018-04-12T08:58:47.505Z,18.09
2018-04-12T09:01:15.052Z,18.18
2018-04-12T09:03:42.533Z,17.99
2018-04-12T09:06:10.581Z,18.25
2018-04-12T09:08:38.097Z,18.42
2018-04-12T09:11:05.593Z,18.52
2018-04-12T09:13:33.101Z,18.27
2018-04-12T09:16:00.585Z,18.63
2018-04-12T09:18:28.243Z,18.96
2018-04-12T09:20:55.769Z,19.04
2018-04-12T09:23:23.279Z,18.71
2018-04-12T09:25:50.850Z,18.49
2018-04-12T09:28:18.338Z,18.33
2018-04-12T09:30:45.874Z,18.72
2018-04-12T09:33:13.378Z,19.18
2018-04-12T09:35:40.877Z,19.22
2018-04-12T09:38:08.409Z,19.12
2018-04-12T09:40:35.898Z,18.38
2018-04-12T09:43:03.441Z,18.46
2018-04-12T09:45:30.933Z,18.45
2018-04-12T09:47:58.449Z,18.41
2018-04-12T09:50:25.975Z,18.64
2018-04-12T09:52:53.465Z,18.88
2018-04-12T09:55:21.197Z,19.16
2018-04-12T09:57:48.691Z,19.09
2018-04-12T10:00:16.192Z,19.17
2018-04-12T10:02:49.422Z,19.13
2018-04-12T10:05:22.441Z,19.11
2018-04-12T10:07:51.887Z,19.19
2018-04-12T10:10:19.376Z,19.13
2018-04-12T10:12:46.953Z,18.90
2018-04-12T10:15:14.452Z,19.20
2018-04-12T10:17:41.932Z,19.52
2018-04-12T10:20:09.445Z,19.80
2018-04-12T10:22:36.934Z,19.70
2018-04-12T10:25:04.681Z,19.37
2018-04-12T10:27:32.166Z,19.50
2018-04-12T10:29:59.657Z,19.65
2018-04-12T10:32:27.164Z,19.74
2018-04-12T10:34:54.653Z,19.98
2018-04-12T10:37:22.417Z,20.06
2018-04-12T10:39:49.911Z,20.08
2018-04-12T10:42:17.397Z,20.06
2018-04-12T10:44:44.920Z,19.76
2018-04-12T10:47:12.409Z,19.97
2018-04-12T10:49:40.177Z,19.78
2018-04-12T10:52:07.656Z,19.91
2018-04-12T10:54:35.188Z,19.59
2018-04-12T10:57:02.720Z,20.27
2018-04-12T10:59:30.209Z,20.12
2018-04-12T11:01:57.949Z,20.44
2018-04-12T11:04:25.437Z,20.38
2018-04-12T11:06:52.950Z,20.48
2018-04-12T11:09:20.493Z,20.39
2018-04-12T11:11:47.977Z,20.19
2018-04-12T11:14:15.529Z,19.98
2018-04-12T11:16:43.018Z,20.19
2018-04-12T11:19:10.502Z,20.07
2018-04-12T11:21:38.016Z,20.09
2018-04-12T11:24:05.506Z,20.21
2018-04-12T11:26:33.182Z,20.19
2018-04-12T11:29:00.673Z,20.12
2018-04-12T11:31:28.204Z,20.22
2018-04-12T11:33:55.705Z,20.16
2018-04-12T11:36:23.195Z,20.21
2018-04-12T11:38:50.762Z,20.17
2018-04-12T11:41:18.285Z,20.33
2018-04-12T11:43:45.805Z,20.07
2018-04-12T11:46:13.331Z,20.23
2018-04-12T11:48:40.837Z,20.29
2018-04-12T11:51:08.687Z,20.29
2018-04-12T11:53:36.572Z,20.43
2018-04-12T11:56:04.125Z,20.38
2018-04-12T11:58:31.628Z,20.38
2018-04-12T12:00:59.138Z,20.37
2018-04-12T12:03:26.659Z,20.41
2018-04-12T12:05:54.182Z,20.47
2018-04-12T12:08:21.676Z,20.72
2018-04-12T12:10:49.186Z,20.52
2018-04-12T12:13:16.673Z,20.70
2018-04-12T12:15:44.221Z,20.61
2018-04-12T12:18:11.733Z,20.99
2018-04-12T12:20:39.264Z,20.58
2018-04-12T12:23:06.779Z,20.61
2018-04-12T12:25:34.265Z,20.64
2018-04-12T12:28:01.774Z,20.69
2018-04-12T12:30:29.265Z,20.98
2018-04-12T12:32:56.834Z,20.83
2018-04-12T12:35:24.330Z,20.72
2018-04-12T12:37:51.822Z,20.55
2018-04-12T12:40:19.337Z,20.72
2018-04-12T12:42:46.929Z,20.37
2018-04-12T12:45:14.643Z,20.15
2018-04-12T12:47:42.199Z,20.52
2018-04-12T12:50:09.709Z,20.38
2018-04-12T12:52:37.237Z,20.34
2018-04-12T12:55:04.734Z,20.59
2018-04-12T12:57:32.261Z,20.36
2018-04-12T12:59:59.757Z,20.63
2018-04-12T13:02:27.286Z,20.78
2018-04-12T13:04:54.775Z,21.27
2018-04-12T13:07:22.304Z,21.05
2018-04-12T13:09:49.809Z,21.42
2018-04-12T13:12:17.293Z,21.44
2018-04-12T13:14:44.805Z,21.56
2018-04-12T13:17:12.305Z,21.68
2018-04-12T13:19:40.242Z,21.52
2018-04-12T13:22:07.741Z,21.60
2018-04-12T13:24:35.240Z,21.70
2018-04-12T13:27:02.766Z,21.79
2018-04-12T13:29:30.297Z,22.34
2018-04-12T13:31:57.973Z,21.56
2018-04-12T13:34:25.461Z,21.93
2018-04-12T13:36:52.954Z,21.91
2018-04-12T13:39:20.487Z,21.72
2018-04-12T13:41:48.007Z,21.70
2018-04-12T13:44:15.795Z,21.37
2018-04-12T13:46:43.289Z,21.33
2018-04-12T13:49:10.788Z,21.42
2018-04-12T13:51:38.305Z,21.37
2018-04-12T13:54:05.797Z,21.47
2018-04-12T13:56:33.340Z,21.56
2018-04-12T13:59:00.829Z,21.63
2018-04-12T14:01:28.327Z,21.54
2018-04-12T14:03:55.844Z,21.48
2018-04-12T14:06:23.349Z,21.53
2018-04-12T14:08:51.272Z,21.64
2018-04-12T14:11:18.809Z,21.44
2018-04-12T14:13:46.281Z,21.39
2018-04-12T14:16:13.808Z,21.49
2018-04-12T14:18:41.286Z,21.52
2018-04-12T14:21:08.785Z,21.48
2018-04-12T14:23:36.286Z,21.65
2018-04-12T14:26:03.761Z,22.21
2018-04-12T14:28:31.273Z,21.97
2018-04-12T14:30:59.009Z,21.65
2018-04-12T14:33:26.513Z,21.38
2018-04-12T14:35:54.054Z,21.84
2018-04-12T14:38:21.574Z,22.07
2018-04-12T14:40:49.085Z,22.13
2018-04-12T14:43:16.605Z,22.15
2018-04-12T14:45:44.088Z,21.89
2018-04-12T14:48:11.578Z,21.68
2018-04-12T14:50:39.081Z,22.12
2018-04-12T14:53:06.593Z,22.00
2018-04-12T14:55:34.101Z,22.32
2018-04-12T14:58:01.641Z,22.23
2018-04-12T15:00:29.251Z,22.32
2018-04-12T15:02:56.767Z,21.69
2018-04-12T15:05:24.277Z,22.28
2018-04-12T15:07:51.758Z,22.25
2018-04-12T15:10:19.271Z,22.09
2018-04-12T15:12:46.820Z,21.49
2018-04-12T15:15:14.309Z,21.71
2018-04-12T15:17:41.791Z,21.28
2018-04-12T15:20:09.652Z,21.25
2018-04-12T15:22:37.136Z,21.29
2018-04-12T15:25:04.641Z,21.31
2018-04-12T15:27:32.353Z,21.23
2018-04-12T15:29:59.993Z,21.08
2018-04-12T15:32:27.478Z,21.06
2018-04-12T15:34:56.960Z,21.12
2018-04-12T15:37:28.385Z,21.06
2018-04-12T15:39:56.977Z,20.96
2018-04-12T15:42:26.061Z,20.74
2018-04-12T15:44:57.165Z,20.72
2018-04-12T15:47:24.881Z,20.53
2018-04-12T15:49:53.611Z,20.58
2018-04-12T15:52:21.149Z,20.49
2018-04-12T15:54:48.628Z,20.60
2018-04-12T15:57:16.325Z,20.60
2018-04-12T15:59:43.805Z,20.48
2018-04-12T16:02:11.301Z,20.59
2018-04-12T16:04:38.806Z,20.48
2018-04-12T16:07:06.292Z,20.82
2018-04-12T16:09:33.918Z,20.91
2018-04-12T16:12:01.400Z,21.01
2018-04-12T16:14:28.944Z,21.25
2018-04-12T16:16:56.482Z,21.03
2018-04-12T16:19:24.005Z,21.14
2018-04-12T16:21:51.522Z,21.01
2018-04-12T16:24:19.029Z,20.94
2018-04-12T16:26:46.601Z,20.61
2018-04-12T16:29:14.114Z,20.75
2018-04-12T16:31:41.832Z,20.82
2018-04-12T16:34:09.341Z,20.89
2018-04-12T16:36:36.863Z,20.89
2018-04-12T16:39:04.355Z,20.88
2018-04-12T16:41:31.883Z,20.75
2018-04-12T16:43:59.415Z,20.59
2018-04-12T16:46:26.983Z,20.33
2018-04-12T16:48:56.581Z,20.23
2018-04-12T16:51:24.441Z,20.12
2018-04-12T16:53:52.035Z,20.19
2018-04-12T16:56:19.571Z,19.99
2018-04-12T16:58:47.070Z,19.91
2018-04-12T17:01:14.549Z,19.93
2018-04-12T17:03:42.091Z,19.88
2018-04-12T17:06:10.240Z,19.83
2018-04-12T17:08:37.902Z,19.90
2018-04-12T17:11:05.450Z,19.86
2018-04-12T17:13:33.066Z,19.83
2018-04-12T17:16:00.624Z,19.80
2018-04-12T17:18:28.109Z,19.85
2018-04-12T17:20:55.627Z,19.81
2018-04-12T17:23:23.133Z,19.73
2018-04-12T17:25:50.997Z,19.73
2018-04-12T17:28:18.474Z,19.69
2018-04-12T17:30:45.953Z,19.67
2018-04-12T17:33:13.514Z,19.61
2018-04-12T17:35:41.005Z,19.60
2018-04-12T17:38:08.574Z,19.75
2018-04-12T17:40:36.080Z,19.49
2018-04-12T17:43:03.571Z,19.29
2018-04-12T17:45:31.109Z,19.22
2018-04-12T17:47:58.665Z,19.06
2018-04-12T17:50:26.423Z,19.44
2018-04-12T17:52:53.956Z,19.16
2018-04-12T17:55:21.469Z,18.99
2018-04-12T17:57:49.014Z,18.83
2018-04-12T18:00:16.525Z,18.94
2018-04-12T18:02:44.352Z,19.10
2018-04-12T18:05:11.948Z,18.64
2018-04-12T18:07:39.445Z,18.46
2018-04-12T18:10:07.675Z,18.41
2018-04-12T18:12:36.993Z,18.37
2018-04-12T18:15:05.231Z,18.27
2018-04-12T18:17:33.206Z,17.91
2018-04-12T18:20:01.041Z,17.85
2018-04-12T18:22:29.131Z,17.57
2018-04-12T18:24:57.145Z,17.24
2018-04-12T18:27:25.922Z,17.08
2018-04-12T18:29:55.855Z,17.02
2018-04-12T18:32:26.116Z,16.80
2018-04-12T18:34:54.195Z,16.66
2018-04-12T18:37:25.482Z,16.59
2018-04-12T18:39:53.854Z,16.09
2018-04-12T18:42:23.261Z,15.95
2018-04-12T18:44:52.668Z,15.91
2018-04-12T18:47:20.330Z,15.81
2018-04-12T18:49:48.340Z,15.92
2018-04-12T18:52:15.897Z,15.77
2018-04-12T18:54:44.714Z,15.42
2018-04-12T18:57:12.798Z,15.06
2018-04-12T18:59:41.302Z,15.00
2018-04-12T19:02:09.709Z,14.92
2018-04-12T19:04:37.692Z,14.78
2018-04-12T19:07:06.300Z,14.65
2018-04-12T19:09:35.285Z,14.38
2018-04-12T19:12:03.597Z,14.56
2018-04-12T19:14:31.888Z,14.44
2018-04-12T19:17:00.160Z,14.42
2018-04-12T19:19:28.138Z,14.40
2018-04-12T19:21:56.206Z,14.44
2018-04-12T19:24:24.394Z,14.27
2018-04-12T19:26:52.881Z,14.30
2018-04-12T19:29:21.218Z,14.42
2018-04-12T19:31:49.475Z,14.38
2018-04-12T19:34:17.951Z,14.07
2018-04-12T19:36:46.660Z,14.15
2018-04-12T19:39:14.539Z,14.15
2018-04-12T19:41:42.903Z,13.76
2018-04-12T19:44:10.916Z,13.55
2018-04-12T19:46:38.999Z,13.63
2018-04-12T19:49:06.863Z,13.34
2018-04-12T19:51:35.066Z,13.53
2018-04-12T19:54:03.338Z,13.42
2018-04-12T19:56:31.441Z,13.00
2018-04-12T19:58:59.726Z,13.03
2018-04-12T20:01:28.222Z,12.88
2018-04-12T20:03:56.071Z,13.07
2018-04-12T20:06:24.312Z,13.15
2018-04-12T20:08:52.260Z,13.12
2018-04-12T20:11:19.932Z,13.13
2018-04-12T20:13:47.736Z,12.80
2018-04-12T20:16:15.461Z,12.84
2018-04-12T20:18:43.387Z,12.71
2018-04-12T20:21:11.146Z,12.86
2018-04-12T20:23:39.209Z,12.82
2018-04-12T20:26:06.730Z,12.97
2018-04-12T20:28:34.236Z,12.96
2018-04-12T20:31:01.759Z,12.71
2018-04-12T20:33:29.241Z,12.64
2018-04-12T20:35:56.956Z,12.56
2018-04-12T20:38:24.454Z,12.37
2018-04-12T20:40:51.949Z,12.05
2018-04-12T20:43:19.465Z,11.97
2018-04-12T20:45:46.961Z,11.86
2018-04-12T20:48:14.496Z,11.87
2018-04-12T20:50:41.973Z,11.98
2018-04-12T20:53:09.473Z,12.33
2018-04-12T20:55:36.982Z,12.16
2018-04-12T20:58:04.507Z,12.35
2018-04-12T21:00:32.177Z,11.81
2018-04-12T21:02:59.656Z,11.99
2018-04-12T21:05:27.167Z,11.99
2018-04-12T21:07:54.673Z,11.76
2018-04-12T21:10:22.148Z,11.83
2018-04-12T21:12:49.701Z,11.68
2018-04-12T21:15:17.193Z,11.81
2018-04-12T21:17:44.677Z,11.65
2018-04-12T21:20:12.185Z,11.40
2018-04-12T21:22:39.667Z,11.26
2018-04-12T21:25:07.381Z,11.26
2018-04-12T21:27:34.897Z,11.40
2018-04-12T21:30:02.381Z,11.61
2018-04-12T21:32:29.880Z,11.44
2018-04-12T21:34:57.364Z,11.33
2018-04-12T21:37:25.240Z,11.38
2018-04-12T21:39:52.741Z,11.37
2018-04-12T21:42:20.235Z,11.11
2018-04-12T21:44:47.737Z,11.42
2018-04-12T21:47:15.216Z,11.54
2018-04-12T21:49:42.944Z,11.13
2018-04-12T21:52:10.425Z,11.32
2018-04-12T21:54:37.901Z,11.22
2018-04-12T21:57:05.413Z,11.20
2018-04-12T21:59:32.917Z,11.05
2018-04-12T22:02:00.416Z,11.00
2018-04-12T22:04:27.892Z,11.07
2018-04-12T22:06:55.369Z,11.02
2018-04-12T22:09:22.880Z,11.06
2018-04-12T22:11:50.361Z,11.11
2018-04-12T22:14:17.848Z,10.77
2018-04-12T22:16:45.397Z,11.20
2018-04-12T22:19:12.881Z,11.24
2018-04-12T22:21:40.378Z,11.38
2018-04-12T22:24:07.916Z,11.33
2018-04-12T22:26:35.413Z,11.20
2018-04-12T22:29:02.895Z,10.48
2018-04-12T22:31:30.398Z,10.82
2018-04-12T22:33:57.910Z,10.53
2018-04-12T22:36:25.389Z,10.56
2018-04-12T22:38:53.105Z,10.81
2018-04-12T22:41:20.642Z,10.65
2018-04-12T22:43:48.136Z,11.00
2018-04-12T22:46:15.649Z,11.16
2018-04-12T22:48:43.139Z,10.94
2018-04-12T22:51:10.632Z,10.75
2018-04-12T22:53:38.280Z,10.65
2018-04-12T22:56:05.755Z,10.44
2018-04-12T22:58:33.236Z,10.57
2018-04-12T23:01:01.063Z,10.72
2018-04-12T23:03:28.542Z,10.72
2018-04-12T23:05:56.049Z,10.27
2018-04-12T23:08:23.583Z,10.16
2018-04-12T23:10:51.056Z,9.98
2018-04-12T23:13:18.547Z,10.10
2018-04-12T23:15:46.049Z,10.14
2018-04-12T23:18:13.525Z,10.03
2018-04-12T23:20:41.040Z,10.08
2018-04-12T23:23:08.512Z,9.91
2018-04-12T23:25:35.989Z,10.03
2018-04-12T23:28:03.514Z,9.66
2018-04-12T23:30:30.986Z,9.67
2018-04-12T23:32:58.665Z,9.86
2018-04-12T23:35:26.141Z,9.69
2018-04-12T23:37:53.613Z,9.90
2018-04-12T23:40:21.134Z,9.78
2018-04-12T23:42:48.622Z,9.73
2018-04-12T23:45:16.158Z,9.77
2018-04-12T23:47:43.642Z,9.99
2018-04-12T23:50:11.125Z,9.84
2018-04-12T23:52:38.652Z,9.99
2018-04-12T23:55:06.125Z,10.05
2018-04-12T23:57:33.661Z,9.83
